createdAt,value
2018-01-01T00:00:45.594Z,6.50
2018-01-01T00:03:13.229Z,6.17
2018-01-01T00:05:41.666Z,5.10
2018-01-01T00:08:13.386Z,5.13
2018-01-01T00:10:41.678Z,4.70
2018-01-01T00:13:10.104Z,4.93
2018-01-01T00:15:37.691Z,5.50
2018-01-01T00:18:10.153Z,6.90
2018-01-01T00:20:40.071Z,5.67
2018-01-01T00:23:08.502Z,5.20
2018-01-01T00:25:37.366Z,4.20
2018-01-01T00:28:05.247Z,9.67
2018-01-01T00:30:34.917Z,5.30
2018-01-01T00:33:04.228Z,5.13
2018-01-01T00:35:33.843Z,4.63
2018-01-01T00:38:01.450Z,4.93
2018-01-01T00:40:31.754Z,4.27
2018-01-01T00:43:01.965Z,6.93
2018-01-01T00:45:31.669Z,7.40
2018-01-01T00:48:02.511Z,5.37
2018-01-01T00:50:31.650Z,4.73
2018-01-01T00:53:00.358Z,4.50
2018-01-01T00:55:27.968Z,5.90
2018-01-01T00:57:57.855Z,4.40
2018-01-01T01:00:25.421Z,4.57
2018-01-01T01:02:57.544Z,5.40
2018-01-01T01:05:29.066Z,4.70
2018-01-01T01:07:58.375Z,4.33
2018-01-01T01:10:29.746Z,2.80
2018-01-01T01:12:57.365Z,3.57
2018-01-01T01:15:25.409Z,2.50
2018-01-01T01:17:57.404Z,3.33
2018-01-01T01:20:27.661Z,3.60
2018-01-01T01:23:05.025Z,2.07
2018-01-01T01:25:42.167Z,2.80
2018-01-01T01:28:11.880Z,1.43
2018-01-01T01:30:42.603Z,2.07
2018-01-01T01:33:12.914Z,2.23
2018-01-01T01:35:41.722Z,1.77
2018-01-01T01:38:09.809Z,2.73
2018-01-01T01:40:38.292Z,1.60
2018-01-01T01:43:08.410Z,2.00
2018-01-01T01:45:37.274Z,1.80
2018-01-01T01:48:06.153Z,1.73
2018-01-01T01:50:34.343Z,1.27
2018-01-01T01:53:04.606Z,2.50
2018-01-01T01:55:32.887Z,3.70
2018-01-01T01:58:00.552Z,1.50
2018-01-01T02:00:28.765Z,1.63
2018-01-01T02:02:56.439Z,2.00
2018-01-01T02:05:24.073Z,0.90
2018-01-01T02:07:55.582Z,1.40
2018-01-01T02:10:24.225Z,1.30
2018-01-01T02:12:54.213Z,1.43
2018-01-01T02:15:22.919Z,1.10
2018-01-01T02:17:50.514Z,1.40
2018-01-01T02:20:23.338Z,1.20
2018-01-01T02:22:50.939Z,1.77
2018-01-01T02:25:20.122Z,1.43
2018-01-01T02:27:48.210Z,3.63
2018-01-01T02:30:16.666Z,1.50
2018-01-01T02:32:52.201Z,1.20
2018-01-01T02:35:20.957Z,1.20
2018-01-01T02:37:56.262Z,1.10
2018-01-01T02:40:24.578Z,1.30
2018-01-01T02:42:53.530Z,1.13
2018-01-01T02:45:23.920Z,1.50
2018-01-01T02:47:54.994Z,1.13
2018-01-01T02:50:25.167Z,1.87
2018-01-01T02:52:52.762Z,1.03
2018-01-01T02:55:22.567Z,0.93
2018-01-01T02:57:51.741Z,0.90
2018-01-01T03:00:20.461Z,1.63
2018-01-01T03:02:49.688Z,1.00
2018-01-01T03:05:19.465Z,0.80
2018-01-01T03:07:48.981Z,1.30
2018-01-01T03:10:16.585Z,1.00
2018-01-01T03:12:44.906Z,1.33
2018-01-01T03:15:15.678Z,1.30
2018-01-01T03:17:43.309Z,0.90
2018-01-01T03:20:12.885Z,1.10
2018-01-01T03:22:41.257Z,0.77
2018-01-01T03:25:09.955Z,1.10
2018-01-01T03:27:40.258Z,1.50
2018-01-01T03:30:09.610Z,0.93
2018-01-01T03:32:38.622Z,0.90
2018-01-01T03:35:10.040Z,1.33
2018-01-01T03:40:13.124Z,1.00
2018-01-01T03:42:49.197Z,1.20
2018-01-01T03:45:16.813Z,1.10
2018-01-01T03:47:48.666Z,1.00
2018-01-01T03:50:19.031Z,1.30
2018-01-01T03:52:49.187Z,1.23
2018-01-01T03:55:17.753Z,0.90
2018-01-01T03:57:46.865Z,1.00
2018-01-01T04:00:15.738Z,1.10
2018-01-01T04:02:45.369Z,2.10
2018-01-01T04:05:14.729Z,1.07
2018-01-01T04:07:44.703Z,1.20
2018-01-01T04:10:13.076Z,1.40
2018-01-01T04:12:46.148Z,1.20
2018-01-01T04:15:14.912Z,1.50
2018-01-01T04:17:49.402Z,0.90
2018-01-01T04:20:17.779Z,0.90
2018-01-01T04:22:47.357Z,1.03
2018-01-01T04:25:16.419Z,1.40
2018-01-01T04:27:45.011Z,1.70
2018-01-01T04:30:13.573Z,0.83
2018-01-01T04:32:41.733Z,1.00
2018-01-01T04:35:11.963Z,1.23
2018-01-01T04:37:39.558Z,0.87
2018-01-01T04:40:08.453Z,0.70
2018-01-01T04:42:37.547Z,0.90
2018-01-01T04:45:05.808Z,1.10
2018-01-01T04:47:36.410Z,1.00
2018-01-01T04:50:06.213Z,1.70
2018-01-01T04:52:35.858Z,0.80
2018-01-01T04:55:07.338Z,1.23
2018-01-01T04:57:37.579Z,0.80
2018-01-01T05:00:08.201Z,0.97
2018-01-01T05:02:38.413Z,0.80
2018-01-01T05:05:08.554Z,0.80
2018-01-01T05:07:38.223Z,0.80
2018-01-01T05:10:08.109Z,0.70
2018-01-01T05:12:36.956Z,0.70
2018-01-01T05:15:06.056Z,0.77
2018-01-01T05:17:34.849Z,0.60
2018-01-01T05:20:04.630Z,0.60
2018-01-01T05:22:34.322Z,0.73
2018-01-01T05:25:01.922Z,0.70
2018-01-01T05:27:32.042Z,0.77
2018-01-01T05:30:02.630Z,0.87
2018-01-01T05:32:32.602Z,0.70
2018-01-01T05:35:01.325Z,1.50
2018-01-01T05:37:31.595Z,0.80
2018-01-01T05:40:00.649Z,0.63
2018-01-01T05:42:29.045Z,0.73
2018-01-01T05:44:58.383Z,0.73
2018-01-01T05:47:27.250Z,0.70
2018-01-01T05:49:56.986Z,0.90
2018-01-01T05:52:27.786Z,0.80
2018-01-01T05:54:55.405Z,0.70
2018-01-01T05:57:27.166Z,0.60
2018-01-01T05:59:56.785Z,0.60
2018-01-01T06:02:27.971Z,0.60
2018-01-01T06:04:56.537Z,0.60
2018-01-01T06:07:25.056Z,0.60
2018-01-01T06:09:53.680Z,0.90
2018-01-01T06:12:23.532Z,0.60
2018-01-01T06:14:53.225Z,0.60
2018-01-01T06:17:20.811Z,0.60
2018-01-01T06:19:51.376Z,0.63
2018-01-01T06:22:23.381Z,0.50
2018-01-01T06:24:53.097Z,0.87
2018-01-01T06:27:22.149Z,0.60
2018-01-01T06:29:51.137Z,0.60
2018-01-01T06:32:20.050Z,0.60
2018-01-01T06:34:48.357Z,0.60
2018-01-01T06:37:17.257Z,0.80
2018-01-01T06:39:47.002Z,0.87
2018-01-01T06:42:17.089Z,0.60
2018-01-01T06:44:47.409Z,1.00
2018-01-01T06:47:16.911Z,0.90
2018-01-01T06:49:44.641Z,0.80
2018-01-01T06:52:13.790Z,1.83
2018-01-01T06:54:41.394Z,0.70
2018-01-01T06:57:09.805Z,0.70
2018-01-01T06:59:40.217Z,1.30
2018-01-01T07:02:08.769Z,1.17
2018-01-01T07:04:39.690Z,0.80
2018-01-01T07:07:10.965Z,1.07
2018-01-01T07:09:39.769Z,0.90
2018-01-01T07:12:07.523Z,0.97
2018-01-01T07:14:37.050Z,0.80
2018-01-01T07:17:06.554Z,0.80
2018-01-01T07:19:35.376Z,0.90
2018-01-01T07:22:04.491Z,1.60
2018-01-01T07:24:34.746Z,0.93
2018-01-01T07:27:07.666Z,0.80
2018-01-01T07:29:36.877Z,0.80
2018-01-01T07:32:07.871Z,1.00
2018-01-01T07:34:37.008Z,0.90
2018-01-01T07:37:12.124Z,1.00
2018-01-01T07:39:42.846Z,0.77
2018-01-01T07:42:14.319Z,0.70
2018-01-01T07:44:43.645Z,1.10
2018-01-01T07:47:13.341Z,1.20
2018-01-01T07:49:41.630Z,0.83
2018-01-01T07:52:12.236Z,0.90
2018-01-01T07:54:43.085Z,1.10
2018-01-01T07:57:13.329Z,0.90
2018-01-01T07:59:41.819Z,1.00
2018-01-01T08:02:13.089Z,1.00
2018-01-01T08:04:41.710Z,1.30
2018-01-01T08:07:17.999Z,1.43
2018-01-01T08:09:50.701Z,0.90
2018-01-01T08:12:20.786Z,0.90
2018-01-01T08:14:49.169Z,0.90
2018-01-01T08:17:16.770Z,0.70
2018-01-01T08:19:44.534Z,0.70
2018-01-01T08:22:13.257Z,0.70
2018-01-01T08:24:43.322Z,1.10
2018-01-01T08:27:10.902Z,1.10
2018-01-01T08:29:38.509Z,1.00
2018-01-01T08:32:07.585Z,0.90
2018-01-01T08:34:35.789Z,0.70
2018-01-01T08:37:05.064Z,1.00
2018-01-01T08:39:32.707Z,0.90
2018-01-01T08:42:00.942Z,0.70
2018-01-01T08:44:28.790Z,0.70
2018-01-01T08:46:59.097Z,0.87
2018-01-01T08:49:26.712Z,1.00
2018-01-01T08:51:55.241Z,0.80
2018-01-01T08:54:26.674Z,0.70
2018-01-01T08:56:55.786Z,0.80
2018-01-01T08:59:24.599Z,0.63
2018-01-01T09:01:52.197Z,0.90
2018-01-01T09:04:22.142Z,0.70
2018-01-01T09:06:51.126Z,0.70
2018-01-01T09:09:20.077Z,0.90
2018-01-01T09:11:48.354Z,0.97
2018-01-01T09:14:17.043Z,1.33
2018-01-01T09:16:44.650Z,0.90
2018-01-01T09:19:19.668Z,0.50
2018-01-01T09:21:49.935Z,1.47
2018-01-01T09:24:21.822Z,0.63
2018-01-01T09:26:51.448Z,0.80
2018-01-01T09:29:21.687Z,0.70
2018-01-01T09:31:49.409Z,0.97
2018-01-01T09:34:18.153Z,0.73
2018-01-01T09:36:46.575Z,0.60
2018-01-01T09:39:19.424Z,0.60
2018-01-01T09:41:50.581Z,0.70
2018-01-01T09:44:20.247Z,0.70
2018-01-01T09:46:48.698Z,0.80
2018-01-01T09:49:18.134Z,0.70
2018-01-01T09:51:46.310Z,0.70
2018-01-01T09:54:15.320Z,0.70
2018-01-01T09:56:46.246Z,0.77
2018-01-01T09:59:21.131Z,1.10
2018-01-01T10:01:52.967Z,0.60
2018-01-01T10:04:22.830Z,1.00
2018-01-01T10:06:51.710Z,1.50
2018-01-01T10:09:25.498Z,0.90
2018-01-01T10:11:53.658Z,0.90
2018-01-01T10:14:27.596Z,0.87
2018-01-01T10:16:56.590Z,0.80
2018-01-01T10:19:25.730Z,1.33
2018-01-01T10:21:54.163Z,1.50
2018-01-01T10:24:23.789Z,1.20
2018-01-01T10:26:53.219Z,1.40
2018-01-01T10:29:21.760Z,0.93
2018-01-01T10:31:52.920Z,0.90
2018-01-01T10:34:20.506Z,1.03
2018-01-01T10:36:50.502Z,1.80
2018-01-01T10:39:21.244Z,1.80
2018-01-01T10:41:48.853Z,1.30
2018-01-01T10:44:21.299Z,1.33
2018-01-01T10:46:48.898Z,1.30
2018-01-01T10:49:16.537Z,1.30
2018-01-01T10:51:44.175Z,1.30
2018-01-01T10:54:15.821Z,0.80
2018-01-01T10:56:45.260Z,2.30
2018-01-01T10:59:13.754Z,1.23
2018-01-01T11:01:42.029Z,1.40
2018-01-01T11:04:12.010Z,1.87
2018-01-01T11:06:48.698Z,2.23
2018-01-01T11:09:18.622Z,1.23
2018-01-01T11:11:48.019Z,1.00
2018-01-01T11:14:19.210Z,1.13
2018-01-01T11:16:46.874Z,1.30
2018-01-01T11:19:15.906Z,1.20
2018-01-01T11:21:44.133Z,1.23
2018-01-01T11:24:12.851Z,1.23
2018-01-01T11:26:41.636Z,1.20
2018-01-01T11:29:10.823Z,2.00
2018-01-01T11:31:39.143Z,1.20
2018-01-01T11:34:09.885Z,1.13
2018-01-01T11:36:39.298Z,1.63
2018-01-01T11:39:07.533Z,1.07
2018-01-01T11:41:37.091Z,1.67
2018-01-01T11:44:05.675Z,1.10
2018-01-01T11:46:39.016Z,1.93
2018-01-01T11:49:08.108Z,1.30
2018-01-01T11:51:38.693Z,1.10
2018-01-01T11:54:08.223Z,1.30
2018-01-01T11:56:38.797Z,1.40
2018-01-01T11:59:07.954Z,1.67
2018-01-01T12:01:36.402Z,1.40
2018-01-01T12:04:05.827Z,1.17
2018-01-01T12:06:33.421Z,1.17
2018-01-01T12:09:01.170Z,1.30
2018-01-01T12:11:29.341Z,1.13
2018-01-01T12:14:00.799Z,2.50
2018-01-01T12:16:33.343Z,1.40
2018-01-01T12:19:04.602Z,1.23
2018-01-01T12:21:34.858Z,0.97
2018-01-01T12:24:02.512Z,1.33
2018-01-01T12:26:30.326Z,1.33
2018-01-01T12:29:08.074Z,2.40
2018-01-01T12:31:37.786Z,1.00
2018-01-01T12:34:08.067Z,1.13
2018-01-01T12:36:36.892Z,1.20
2018-01-01T12:39:08.482Z,1.70
2018-01-01T12:41:37.262Z,1.93
2018-01-01T12:44:09.922Z,3.03
2018-01-01T12:46:51.901Z,1.40
2018-01-01T12:49:20.689Z,1.70
2018-01-01T12:51:52.595Z,1.57
2018-01-01T12:54:22.118Z,2.07
2018-01-01T12:56:51.607Z,1.90
2018-01-01T12:59:20.586Z,1.50
2018-01-01T13:01:50.480Z,1.80
2018-01-01T13:04:22.096Z,1.83
2018-01-01T13:06:49.826Z,1.80
2018-01-01T13:09:19.204Z,1.73
2018-01-01T13:11:48.509Z,2.47
2018-01-01T13:14:17.196Z,1.80
2018-01-01T13:16:48.287Z,2.03
2018-01-01T13:19:18.976Z,2.20
2018-01-01T13:21:48.158Z,1.80
2018-01-01T13:24:17.830Z,1.70
2018-01-01T13:26:45.705Z,1.63
2018-01-01T13:29:14.657Z,2.10
2018-01-01T13:31:42.675Z,2.43
2018-01-01T13:34:18.936Z,2.20
2018-01-01T13:36:49.814Z,2.40
2018-01-01T13:39:18.301Z,2.27
2018-01-01T13:41:46.833Z,2.53
2018-01-01T13:44:14.452Z,2.30
2018-01-01T13:46:44.656Z,2.30
2018-01-01T13:49:15.321Z,1.57
2018-01-01T13:51:44.730Z,1.70
2018-01-01T13:54:14.882Z,2.23
2018-01-01T13:56:44.609Z,2.17
2018-01-01T13:59:13.835Z,5.20
2018-01-01T14:01:43.025Z,1.60
2018-01-01T14:04:13.199Z,2.07
2018-01-01T14:06:41.497Z,2.03
2018-01-01T14:09:14.338Z,2.03
2018-01-01T14:11:43.831Z,2.20
2018-01-01T14:14:12.560Z,3.80
2018-01-01T14:16:42.211Z,2.20
2018-01-01T14:19:11.193Z,1.87
2018-01-01T14:21:39.674Z,2.47
2018-01-01T14:24:11.856Z,2.33
2018-01-01T14:26:41.237Z,1.87
2018-01-01T14:29:14.593Z,1.70
2018-01-01T14:31:43.717Z,1.83
2018-01-01T14:34:14.209Z,2.00
2018-01-01T14:36:46.528Z,4.40
2018-01-01T14:39:15.324Z,1.90
2018-01-01T14:41:44.757Z,1.50
2018-01-01T14:44:13.829Z,2.27
2018-01-01T14:46:42.371Z,1.57
2018-01-01T14:49:12.977Z,2.10
2018-01-01T14:51:42.206Z,1.50
2018-01-01T14:54:10.564Z,1.70
2018-01-01T14:56:38.270Z,1.70
2018-01-01T14:59:08.036Z,1.57
2018-01-01T15:01:38.627Z,2.03
2018-01-01T15:04:07.076Z,2.23
2018-01-01T15:06:37.166Z,2.17
2018-01-01T15:09:06.111Z,2.27
2018-01-01T15:11:36.127Z,2.13
2018-01-01T15:14:06.651Z,2.50
2018-01-01T15:16:35.692Z,2.37
2018-01-01T15:19:15.377Z,9.57
2018-01-01T15:21:45.012Z,1.67
2018-01-01T15:24:14.293Z,2.00
2018-01-01T15:26:42.266Z,3.10
2018-01-01T15:29:12.579Z,2.17
2018-01-01T15:31:44.888Z,2.07
2018-01-01T15:34:13.511Z,3.23
2018-01-01T15:36:42.230Z,2.60
2018-01-01T15:39:10.947Z,2.17
2018-01-01T15:41:39.590Z,5.00
2018-01-01T15:44:08.705Z,1.70
2018-01-01T15:46:38.919Z,1.40
2018-01-01T15:49:10.542Z,1.80
2018-01-01T15:51:39.256Z,1.77
2018-01-01T15:54:08.107Z,2.17
2018-01-01T15:56:35.865Z,2.20
2018-01-01T15:59:05.678Z,3.37
2018-01-01T16:01:36.923Z,4.73
2018-01-01T16:04:05.835Z,2.50
2018-01-01T16:06:37.332Z,2.10
2018-01-01T16:09:05.129Z,3.53
2018-01-01T16:11:37.328Z,1.87
2018-01-01T16:14:07.431Z,2.00
2018-01-01T16:16:37.070Z,1.83
2018-01-01T16:19:10.920Z,1.47
2018-01-01T16:21:39.607Z,1.87
2018-01-01T16:24:08.635Z,2.00
2018-01-01T16:26:36.942Z,1.50
2018-01-01T16:29:04.716Z,2.20
2018-01-01T16:31:36.182Z,1.67
2018-01-01T16:34:05.892Z,1.80
2018-01-01T16:36:37.807Z,1.73
2018-01-01T16:39:08.657Z,2.20
2018-01-01T16:41:37.061Z,2.50
2018-01-01T16:44:12.299Z,2.33
2018-01-01T16:46:45.500Z,2.50
2018-01-01T16:49:14.742Z,1.57
2018-01-01T16:51:47.935Z,2.57
2018-01-01T16:54:16.847Z,1.90
2018-01-01T16:56:45.935Z,2.23
2018-01-01T16:59:14.628Z,2.87
2018-01-01T17:01:43.793Z,2.70
2018-01-01T17:04:13.900Z,2.37
2018-01-01T17:06:44.557Z,2.67
2018-01-01T17:09:15.700Z,3.33
2018-01-01T17:11:46.487Z,1.53
2018-01-01T17:14:15.620Z,2.30
2018-01-01T17:16:44.406Z,7.17
2018-01-01T17:19:12.713Z,13.13
2018-01-01T17:21:41.235Z,2.50
2018-01-01T17:24:11.442Z,1.47
2018-01-01T17:26:39.831Z,1.57
2018-01-01T17:29:10.124Z,2.53
2018-01-01T17:31:37.747Z,2.40
2018-01-01T17:34:07.150Z,2.20
2018-01-01T17:36:35.996Z,2.80
2018-01-01T17:39:06.236Z,2.40
2018-01-01T17:44:09.465Z,2.87
2018-01-01T17:46:40.268Z,2.27
2018-01-01T17:49:10.527Z,2.13
2018-01-01T17:51:43.411Z,1.43
2018-01-01T17:54:12.870Z,1.60
2018-01-01T17:56:41.739Z,2.43
2018-01-01T17:59:10.317Z,2.30
2018-01-01T18:01:39.218Z,2.33
2018-01-01T18:04:11.041Z,1.53
2018-01-01T18:06:38.636Z,2.40
2018-01-01T18:09:07.340Z,2.77
2018-01-01T18:11:35.724Z,2.60
2018-01-01T18:14:03.594Z,2.40
2018-01-01T18:16:31.352Z,2.60
2018-01-01T18:18:59.201Z,1.10
2018-01-01T18:21:31.055Z,1.10
2018-01-01T18:24:00.376Z,1.03
2018-01-01T18:26:29.595Z,1.33
2018-01-01T18:28:58.900Z,1.77
2018-01-01T18:31:28.790Z,1.83
2018-01-01T18:33:58.763Z,1.63
2018-01-01T18:36:28.271Z,2.10
2018-01-01T18:38:56.810Z,3.00
2018-01-01T18:41:25.715Z,0.90
2018-01-01T18:43:56.300Z,1.00
2018-01-01T18:46:25.602Z,1.03
2018-01-01T18:48:55.052Z,1.73
2018-01-01T18:51:23.378Z,3.50
2018-01-01T18:53:55.376Z,6.57
2018-01-01T18:56:23.219Z,3.50
2018-01-01T18:58:53.898Z,1.20
2018-01-01T19:01:26.267Z,1.80
2018-01-01T19:03:56.545Z,0.80
2018-01-01T19:06:24.185Z,1.97
2018-01-01T19:08:54.931Z,0.80
2018-01-01T19:11:23.133Z,1.50
2018-01-01T19:13:52.618Z,1.63
2018-01-01T19:16:29.644Z,1.43
2018-01-01T19:19:02.620Z,1.00
2018-01-01T19:21:30.964Z,1.87
2018-01-01T19:23:58.585Z,2.03
2018-01-01T19:26:27.246Z,2.20
2018-01-01T19:28:56.539Z,6.13
2018-01-01T19:31:24.892Z,2.30
2018-01-01T19:33:53.817Z,3.60
2018-01-01T19:36:22.065Z,2.80
2018-01-01T19:38:49.920Z,2.00
2018-01-01T19:41:18.392Z,3.97
2018-01-01T19:43:49.049Z,2.33
2018-01-01T19:46:17.335Z,1.70
2018-01-01T19:48:48.918Z,1.90
2018-01-01T19:51:23.736Z,1.33
2018-01-01T19:53:53.466Z,1.60
2018-01-01T19:56:22.888Z,1.73
2018-01-01T19:58:50.833Z,2.10
2018-01-01T20:01:19.464Z,4.20
2018-01-01T20:03:49.563Z,2.30
2018-01-01T20:06:19.911Z,2.33
2018-01-01T20:08:48.240Z,2.87
2018-01-01T20:11:18.071Z,1.70
2018-01-01T20:13:47.896Z,2.57
2018-01-01T20:16:19.475Z,2.90
2018-01-01T20:18:48.495Z,1.10
2018-01-01T20:21:17.530Z,1.87
2018-01-01T20:23:46.118Z,1.27
2018-01-01T20:26:13.890Z,1.20
2018-01-01T20:28:42.202Z,1.17
2018-01-01T20:31:09.919Z,1.20
2018-01-01T20:33:37.591Z,1.80
2018-01-01T20:36:07.713Z,1.43
2018-01-01T20:38:38.978Z,1.30
2018-01-01T20:41:08.660Z,1.23
2018-01-01T20:43:36.312Z,2.07
2018-01-01T20:46:04.643Z,1.53
2018-01-01T20:48:34.627Z,1.70
2018-01-01T20:51:02.957Z,1.50
2018-01-01T20:53:33.796Z,1.30
2018-01-01T20:56:03.188Z,1.57
2018-01-01T20:58:31.558Z,1.77
2018-01-01T21:01:00.181Z,1.60
2018-01-01T21:03:31.775Z,1.50
2018-01-01T21:06:02.518Z,1.90
2018-01-01T21:08:31.120Z,1.60
2018-01-01T21:11:03.690Z,2.00
2018-01-01T21:13:31.435Z,1.93
2018-01-01T21:16:00.100Z,2.27
2018-01-01T21:18:30.183Z,2.07
2018-01-01T21:20:58.926Z,2.17
2018-01-01T21:23:29.285Z,1.80
2018-01-01T21:26:00.890Z,2.47
2018-01-01T21:28:30.934Z,2.07
2018-01-01T21:31:00.818Z,2.93
2018-01-01T21:33:29.019Z,3.20
2018-01-01T21:35:57.681Z,2.47
2018-01-01T21:38:25.355Z,2.40
2018-01-01T21:40:55.101Z,2.87
2018-01-01T21:43:22.875Z,2.73
2018-01-01T21:45:53.012Z,3.00
2018-01-01T21:48:22.407Z,2.63
2018-01-01T21:50:50.168Z,2.60
2018-01-01T21:53:19.742Z,3.07
2018-01-01T21:55:50.127Z,2.73
2018-01-01T21:58:19.583Z,3.10
2018-01-01T22:00:50.771Z,2.10
2018-01-01T22:03:21.118Z,2.73
2018-01-01T22:05:50.806Z,2.87
2018-01-01T22:08:21.749Z,3.17
2018-01-01T22:10:52.235Z,2.60
2018-01-01T22:13:22.564Z,3.27
2018-01-01T22:15:50.686Z,3.80
2018-01-01T22:18:19.675Z,3.97
2018-01-01T22:20:48.001Z,3.23
2018-01-01T22:23:16.720Z,3.67
2018-01-01T22:25:46.626Z,3.00
2018-01-01T22:28:17.035Z,3.23
2018-01-01T22:30:45.586Z,3.90
2018-01-01T22:33:14.596Z,2.80
2018-01-01T22:35:46.121Z,2.10
2018-01-01T22:38:14.530Z,2.30
2018-01-01T22:40:43.445Z,2.37
2018-01-01T22:43:11.824Z,1.33
2018-01-01T22:45:40.703Z,2.10
2018-01-01T22:48:12.117Z,1.70
2018-01-01T22:50:39.832Z,2.30
2018-01-01T22:53:10.096Z,2.40
2018-01-01T22:55:41.744Z,2.03
2018-01-01T22:58:11.877Z,1.87
2018-01-01T23:00:41.354Z,2.47
2018-01-01T23:03:10.825Z,1.50
2018-01-01T23:05:39.178Z,1.57
2018-01-01T23:08:08.118Z,1.30
2018-01-01T23:10:36.136Z,1.40
2018-01-01T23:13:05.083Z,0.83
2018-01-01T23:15:33.822Z,1.43
2018-01-01T23:18:02.623Z,1.30
2018-01-01T23:20:31.821Z,0.80
2018-01-01T23:23:01.315Z,0.80
2018-01-01T23:25:30.890Z,0.70
2018-01-01T23:28:08.448Z,0.90
2018-01-01T23:30:37.386Z,1.23
2018-01-01T23:33:07.734Z,1.93
2018-01-01T23:35:38.828Z,2.70
2018-01-01T23:38:07.776Z,2.73
2018-01-01T23:40:43.071Z,3.57
2018-01-01T23:43:12.977Z,4.33
2018-01-01T23:45:41.105Z,6.10
2018-01-01T23:48:11.855Z,5.60
2018-01-01T23:50:44.003Z,6.03
2018-01-01T23:53:17.001Z,5.70
2018-01-01T23:55:47.178Z,4.80
2018-01-01T23:58:17.150Z,3.73
